Time;durP1;ratioP1;P1;durP2;ratioP2;P2;SDS_P1;SDS_P2;PMS_P1;PMS_P2;Temp;Humidity;BMP_temperature;BMP_pressure;BME280_temperature;BME280_humidity;BME280_pressure;Samples;Min_cycle;Max_cycle;Signal;HPM_P1;HPM_P2
2022/01/08 00:01:09;;;;;;;3.77;1.57;;;;;;;-145.69;100.00;72491.00;5053658;28;20203;-77
2022/01/08 00:03:35;;;;;;;2.60;1.80;;;;;;;-145.69;100.00;72471.09;5053909;28;20238;-77
2022/01/08 00:06:02;;;;;;;2.70;1.37;;;;;;;-145.69;100.00;72479.06;5053731;28;20204;-77
2022/01/08 00:08:28;;;;;;;4.07;1.53;;;;;;;-145.69;100.00;72485.03;5053618;28;20214;-76
2022/01/08 00:10:56;;;;;;;3.13;1.60;;;;;;;-145.69;100.00;72475.06;5053661;28;20206;-76
2022/01/08 00:13:23;;;;;;;3.30;1.90;;;;;;;-145.69;100.00;72477.06;5053677;28;20206;-76
2022/01/08 00:15:49;;;;;;;5.73;2.10;;;;;;;-145.69;100.00;72469.09;5053378;28;20199;-76
2022/01/08 00:18:16;;;;;;;4.90;1.70;;;;;;;-145.69;100.00;72453.19;5053522;28;20257;-76
2022/01/08 00:20:42;;;;;;;2.07;1.70;;;;;;;-145.69;100.00;72449.19;5053893;28;20214;-77
2022/01/08 00:23:10;;;;;;;5.83;2.20;;;;;;;-145.69;100.00;72443.22;5053209;28;20202;-76
2022/01/08 00:25:36;;;;;;;3.53;2.00;;;;;;;-145.69;100.00;72435.28;5053560;28;20231;-76
2022/01/08 00:28:04;;;;;;;3.20;1.97;;;;;;;-145.69;100.00;72437.25;5053295;28;20657;-77
2022/01/08 00:30:31;;;;;;;5.90;1.80;;;;;;;-145.69;100.00;72439.25;5053090;28;20203;-77
2022/01/08 00:32:59;;;;;;;3.13;1.60;;;;;;;-145.69;100.00;72437.25;5053389;28;20561;-77
2022/01/08 00:35:26;;;;;;;4.80;1.33;;;;;;;-145.69;100.00;72423.31;5053231;28;20257;-77
2022/01/08 00:37:52;;;;;;;4.37;1.70;;;;;;;-145.69;100.00;72417.34;5053451;28;20196;-77
2022/01/08 00:40:19;;;;;;;5.67;1.70;;;;;;;-145.69;100.00;72405.41;5053018;28;20238;-76
2022/01/08 00:42:45;;;;;;;3.73;1.60;;;;;;;-145.69;100.00;72399.44;5052969;28;20211;-77
2022/01/08 00:45:13;;;;;;;2.50;1.40;;;;;;;-145.69;100.00;72389.50;5053048;28;20597;-76
2022/01/08 00:47:39;;;;;;;3.87;1.57;;;;;;;-145.69;100.00;72383.53;5053201;28;20207;-76
2022/01/08 00:50:06;;;;;;;2.73;1.37;;;;;;;-145.69;100.00;72367.59;5053003;28;20264;-77
2022/01/08 00:52:33;;;;;;;4.80;1.70;;;;;;;-145.69;100.00;72377.53;5052728;28;20231;-76
2022/01/08 00:54:59;;;;;;;2.27;1.33;;;;;;;-145.69;100.00;72381.53;5052017;28;20192;-76
2022/01/08 00:57:26;;;;;;;3.50;1.50;;;;;;;-145.69;100.00;72371.56;5053114;28;20601;-76
2022/01/08 00:59:52;;;;;;;5.07;1.43;;;;;;;-145.69;100.00;72377.53;5051311;28;20254;-76
2022/01/08 01:02:20;;;;;;;2.40;1.37;;;;;;;-145.69;100.00;72361.63;5034718;28;20204;-76
2022/01/08 01:04:46;;;;;;;3.30;1.57;;;;;;;-145.69;100.00;72359.63;5033015;28;20629;-76
2022/01/08 01:07:13;;;;;;;2.13;1.40;;;;;;;-145.69;100.00;72361.63;5033010;28;20196;-76
2022/01/08 01:09:39;;;;;;;4.43;1.70;;;;;;;-145.69;100.00;72363.63;5033066;28;20196;-76
2022/01/08 01:12:07;;;;;;;3.00;1.53;;;;;;;-145.69;100.00;72349.69;5032729;28;20200;-76
2022/01/08 01:14:33;;;;;;;3.63;1.53;;;;;;;-145.69;100.00;72353.66;5032853;28;20278;-76
2022/01/08 01:17:00;;;;;;;2.93;1.80;;;;;;;-145.69;100.00;72345.69;5032884;28;20196;-76
2022/01/08 01:19:29;;;;;;;4.93;1.50;;;;;;;-145.69;100.00;72329.78;5032707;28;20220;-76
2022/01/08 01:21:57;;;;;;;3.50;1.70;;;;;;;-145.69;98.69;72321.81;5032787;28;20292;-76
2022/01/08 01:24:25;;;;;;;5.03;1.83;;;;;;;-145.69;99.07;72311.88;5050517;28;20195;-76
2022/01/08 01:27:16;;;;;;;2.37;1.60;;;;;;;-145.69;99.27;72305.91;5052656;28;20199;-76
2022/01/08 01:29:51;;;;;;;2.87;1.73;;;;;;;-145.69;99.96;72305.91;5052716;28;20231;-76
2022/01/08 01:46:59;;;;;;;4.37;1.73;;;;;;;-145.69;100.00;72333.75;5052545;28;20230;-77
2022/01/08 01:49:01;;;;;;;5.73;2.10;;;;;;;-145.69;100.00;72305.91;5018983;28;20551;-76
2022/01/08 01:51:29;;;;;;;5.17;2.00;;;;;;;-145.69;100.00;72295.94;5052474;28;20202;-77
2022/01/08 01:53:55;;;;;;;2.33;1.70;;;;;;;-145.69;100.00;72287.97;5052551;28;20189;-76
2022/01/08 01:56:22;;;;;;;2.57;1.70;;;;;;;-145.69;100.00;72280.03;5052716;28;20199;-77
2022/01/08 01:58:49;;;;;;;4.00;1.83;;;;;;;-145.69;100.00;72280.03;5052374;28;20219;-76
2022/01/08 02:01:17;;;;;;;7.77;1.73;;;;;;;-145.69;100.00;72278.03;5053054;28;20200;-77
2022/01/08 02:03:43;;;;;;;4.73;2.10;;;;;;;-145.69;100.00;72270.06;5056545;28;20207;-76
2022/01/08 02:06:10;;;;;;;4.37;1.93;;;;;;;-145.69;100.00;72274.06;5055832;28;20199;-76
2022/01/08 02:08:39;;;;;;;5.20;2.10;;;;;;;-145.69;100.00;72278.03;5056068;28;20203;-77
2022/01/08 02:11:07;;;;;;;6.87;1.97;;;;;;;-145.69;100.00;72266.09;5055882;28;20227;-77
2022/01/08 02:13:34;;;;;;;2.13;1.77;;;;;;;-145.69;100.00;72246.19;5055826;28;20204;-77
2022/01/08 02:16:16;;;;;;;4.60;2.07;;;;;;;-145.69;100.00;72244.19;5054606;28;20209;-77
2022/01/08 02:18:44;;;;;;;3.50;2.13;;;;;;;-145.69;100.00;72246.19;5035802;28;20204;-76
2022/01/08 02:21:13;;;;;;;3.43;1.70;;;;;;;-145.69;100.00;72236.22;5035993;28;20270;-77
2022/01/08 02:23:39;;;;;;;4.53;2.20;;;;;;;-145.69;100.00;72234.25;5048309;28;20531;-76
2022/01/08 02:26:08;;;;;;;3.10;1.87;;;;;;;-145.69;100.00;72242.22;5055741;28;20195;-77
2022/01/08 02:28:35;;;;;;;5.13;2.13;;;;;;;-145.69;100.00;72248.19;5055826;28;20203;-77
2022/01/08 02:31:01;;;;;;;4.97;1.80;;;;;;;-145.69;100.00;72254.16;5055716;28;20199;-78
2022/01/08 02:33:28;;;;;;;5.50;1.83;;;;;;;-145.69;100.00;72254.16;5055751;28;20211;-77
2022/01/08 02:35:56;;;;;;;5.07;2.17;;;;;;;-145.69;100.00;72246.19;5055804;28;20203;-77
2022/01/08 02:38:24;;;;;;;4.03;2.27;;;;;;;-145.69;100.00;72250.16;5055242;28;20628;-77
2022/01/08 02:40:55;;;;;;;3.03;1.87;;;;;;;-145.69;100.00;72248.19;5055125;28;20706;-77
2022/01/08 02:43:23;;;;;;;3.30;2.07;;;;;;;-145.69;100.00;72238.22;5055216;28;20658;-77
2022/01/08 02:45:49;;;;;;;4.10;1.90;;;;;;;-145.69;100.00;72242.22;5055439;28;20253;-77
2022/01/08 02:48:16;;;;;;;7.43;2.20;;;;;;;-145.69;100.00;72250.16;5054683;28;20563;-78
2022/01/08 02:50:42;;;;;;;3.23;1.93;;;;;;;-145.69;100.00;72234.25;5055297;28;20200;-77
2022/01/08 02:53:09;;;;;;;3.13;2.03;;;;;;;-145.69;100.00;72232.25;5055118;28;20706;-77
2022/01/08 02:55:37;;;;;;;2.60;1.90;;;;;;;-145.69;100.00;72230.25;5055027;28;20206;-77
2022/01/08 02:58:04;;;;;;;5.13;2.23;;;;;;;-145.69;100.00;72222.31;5055048;28;20207;-77
2022/01/08 03:00:31;;;;;;;7.27;2.00;;;;;;;-145.69;100.00;72222.31;5055180;28;20235;-77
2022/01/08 03:02:58;;;;;;;2.57;1.93;;;;;;;-145.69;100.00;72222.31;5055137;28;20199;-77
2022/01/08 03:05:24;;;;;;;3.80;1.80;;;;;;;-145.69;100.00;72218.31;5055111;28;20210;-76
2022/01/08 03:07:51;;;;;;;2.13;1.80;;;;;;;-145.69;100.00;72198.41;5052951;28;20700;-77
2022/01/08 03:10:18;;;;;;;5.17;2.20;;;;;;;-145.69;100.00;72192.44;5036454;28;20234;-77
2022/01/08 03:12:47;;;;;;;3.53;1.83;;;;;;;-145.69;100.00;72198.41;5035052;28;20200;-76
2022/01/08 03:15:15;;;;;;;6.33;1.70;;;;;;;-145.69;100.00;72188.47;5035026;28;20299;-77
2022/01/08 03:17:42;;;;;;;1.90;1.40;;;;;;;-145.69;100.00;72184.50;5048117;28;20249;-78
2022/01/08 03:20:13;;;;;;;1.67;1.40;;;;;;;-145.69;100.00;72206.38;5054456;28;20701;-77
2022/01/08 03:22:41;;;;;;;2.67;1.60;;;;;;;-145.69;100.00;72190.47;5054516;28;20211;-78
2022/01/08 03:25:08;;;;;;;2.77;1.40;;;;;;;-145.69;100.00;72194.44;5054086;28;20646;-77
2022/01/08 03:27:35;;;;;;;2.17;1.40;;;;;;;-145.69;100.00;72202.41;5054299;28;20208;-77
2022/01/08 03:30:05;;;;;;;2.10;1.43;;;;;;;-145.69;100.00;72200.41;5054419;28;20196;-77
2022/01/08 03:32:31;;;;;;;1.57;1.30;;;;;;;-145.69;100.00;72202.41;5054429;28;20282;-77
2022/01/08 03:34:58;;;;;;;2.10;1.40;;;;;;;-145.69;100.00;72186.47;5054335;28;20200;-78
2022/01/08 03:37:24;;;;;;;1.40;0.90;;;;;;;-145.69;100.00;72182.50;5054351;28;20199;-77
2022/01/08 03:39:51;;;;;;;1.47;1.20;;;;;;;-145.69;100.00;72168.56;5053919;28;20231;-77
2022/01/08 03:42:17;;;;;;;0.80;0.80;;;;;;;-145.69;100.00;72168.56;5054340;28;20203;-77
2022/01/08 03:44:43;;;;;;;1.60;1.00;;;;;;;-145.69;100.00;72178.53;5054328;28;20203;-78
2022/01/08 03:47:31;;;;;;;0.87;0.87;;;;;;;-145.69;100.00;72162.59;5053975;28;20199;-77
2022/01/08 03:49:59;;;;;;;2.17;1.20;;;;;;;-145.69;100.00;72178.53;5054057;28;20238;-77
2022/01/08 03:52:27;;;;;;;1.17;1.07;;;;;;;-145.69;100.00;72168.56;5053883;28;20638;-76
2022/01/08 03:54:53;;;;;;;1.03;0.73;;;;;;;-145.69;100.00;72170.56;5054073;28;20249;-77
2022/01/08 03:57:19;;;;;;;1.87;1.00;;;;;;;-145.69;100.00;72164.59;5053883;28;20203;-78
2022/01/08 03:59:46;;;;;;;1.40;0.80;;;;;;;-145.69;100.00;72158.63;5053723;28;20694;-77
2022/01/08 04:02:14;;;;;;;1.73;0.80;;;;;;;-145.69;100.00;72158.63;5054065;28;20204;-78
2022/01/08 04:04:40;;;;;;;1.20;0.80;;;;;;;-145.69;100.00;72146.69;5053816;28;20257;-78
2022/01/08 04:07:06;;;;;;;0.70;0.60;;;;;;;-145.69;100.00;72140.69;5053963;28;20207;-78
2022/01/08 04:09:33;;;;;;;2.60;0.80;;;;;;;-145.69;100.00;72134.72;5054000;28;20207;-77
2022/01/08 04:12:00;;;;;;;0.77;0.60;;;;;;;-145.69;100.00;72134.72;5053722;28;20230;-78
2022/01/08 04:14:35;;;;;;;1.23;0.60;;;;;;;-145.69;100.00;72136.72;5053771;28;20207;-78
2022/01/08 04:17:01;;;;;;;0.77;0.60;;;;;;;-145.69;100.00;72140.69;5053290;28;20227;-78
2022/01/08 04:19:29;;;;;;;2.63;0.70;;;;;;;-145.69;100.00;72134.72;5053458;28;20234;-77
2022/01/08 04:22:09;;;;;;;0.50;0.50;;;;;;;-145.69;100.00;72150.66;5053677;28;20260;-77
2022/01/08 04:24:36;;;;;;;0.93;0.70;;;;;;;-145.69;100.00;72136.72;5053154;28;20206;-76
2022/01/08 04:27:03;;;;;;;2.43;0.70;;;;;;;-145.69;100.00;72144.69;5053448;28;20202;-77
2022/01/08 04:29:30;;;;;;;1.77;0.80;;;;;;;-145.69;100.00;72146.69;5053466;28;20204;-77
2022/01/08 04:31:56;;;;;;;0.90;0.80;;;;;;;-145.69;100.00;72156.63;5053311;28;20211;-77
2022/01/08 04:34:22;;;;;;;0.57;0.57;;;;;;;-145.69;100.00;72170.56;5053202;28;20662;-77
2022/01/08 04:36:50;;;;;;;1.87;1.10;;;;;;;-145.69;100.00;72178.53;5053529;28;20211;-78
2022/01/08 04:39:17;;;;;;;1.63;0.70;;;;;;;-145.69;100.00;72180.50;5053387;28;20202;-77
2022/01/08 04:41:44;;;;;;;1.80;0.90;;;;;;;-145.69;100.00;72182.50;5053025;28;20235;-78
2022/01/08 04:44:11;;;;;;;0.93;0.80;;;;;;;-145.69;100.00;72182.50;5053138;28;20206;-78
2022/01/08 04:46:38;;;;;;;0.70;0.70;;;;;;;-145.69;100.00;72166.56;5053281;28;20199;-78
2022/01/08 04:49:05;;;;;;;0.60;0.60;;;;;;;-145.69;100.00;72166.56;5053467;28;20294;-77
2022/01/08 04:51:31;;;;;;;1.13;0.90;;;;;;;-145.69;100.00;72188.47;5053063;28;20230;-77
2022/01/08 04:53:59;;;;;;;4.57;0.70;;;;;;;-145.69;100.00;72190.47;5053297;28;20226;-77
2022/01/08 04:56:25;;;;;;;0.70;0.70;;;;;;;-145.69;100.00;72194.44;5053398;28;20593;-77
2022/01/08 04:58:52;;;;;;;0.60;0.60;;;;;;;-145.69;100.00;72188.47;5052963;28;20203;-76
2022/01/08 05:01:19;;;;;;;0.80;0.80;;;;;;;-145.69;100.00;72190.47;5053294;28;20238;-77
2022/01/08 05:03:46;;;;;;;0.83;0.80;;;;;;;-145.69;100.00;72198.41;5053232;28;20203;-77
2022/01/08 05:06:12;;;;;;;1.20;0.70;;;;;;;-145.69;100.00;72198.41;5053188;28;20258;-77
2022/01/08 05:08:39;;;;;;;1.57;0.73;;;;;;;-145.69;100.00;72200.41;5053230;28;20203;-77
2022/01/08 05:11:06;;;;;;;1.07;0.87;;;;;;;-145.69;100.00;72194.44;5052978;28;20200;-77
2022/01/08 05:13:33;;;;;;;0.80;0.80;;;;;;;-145.69;100.00;72206.38;5052823;28;20199;-77
2022/01/08 05:16:00;;;;;;;1.90;0.83;;;;;;;-145.69;100.00;72212.34;5052816;28;20222;-77
2022/01/08 05:18:29;;;;;;;0.60;0.60;;;;;;;-145.69;100.00;72210.38;5042147;28;20203;-77
2022/01/08 05:21:07;;;;;;;1.07;0.67;;;;;;;-145.69;100.00;72220.31;5033075;28;20227;-77
2022/01/08 05:23:33;;;;;;;1.10;0.63;;;;;;;-145.69;100.00;72214.34;5033147;28;20306;-77
2022/01/08 05:25:59;;;;;;;0.90;0.60;;;;;;;-145.69;100.00;72226.28;5032804;28;20692;-78
2022/01/08 05:28:27;;;;;;;0.57;0.57;;;;;;;-145.69;100.00;72244.19;5032423;28;20211;-77
2022/01/08 05:30:54;;;;;;;0.73;0.70;;;;;;;-145.69;100.00;72250.16;5033118;28;20207;-77
2022/01/08 05:33:20;;;;;;;0.60;0.60;;;;;;;-145.69;100.00;72262.09;5032811;28;20204;-77
2022/01/08 05:35:47;;;;;;;0.77;0.70;;;;;;;-145.69;100.00;72282.00;5032893;28;20207;-78
2022/01/08 05:38:13;;;;;;;0.70;0.70;;;;;;;-145.69;100.00;72293.94;5036734;28;20208;-77
2022/01/08 05:40:39;;;;;;;0.93;0.70;;;;;;;-145.69;100.00;72309.88;5036393;28;20281;-78
2022/01/08 05:43:06;;;;;;;0.50;0.50;;;;;;;-145.69;100.00;72323.81;5036786;28;20261;-77
2022/01/08 05:45:34;;;;;;;0.90;0.90;;;;;;;-145.69;100.00;72345.69;5038936;28;20616;-77
2022/01/08 05:48:00;;;;;;;0.70;0.70;;;;;;;-145.69;100.00;72351.66;5056621;28;20207;-78
2022/01/08 05:50:27;;;;;;;0.93;0.83;;;;;;;-145.69;100.00;72365.59;5056392;28;20651;-77
2022/01/08 05:52:53;;;;;;;0.80;0.80;;;;;;;-145.69;100.00;72377.53;5056324;28;20273;-78
2022/01/08 05:55:19;;;;;;;0.60;0.60;;;;;;;-145.69;100.00;72381.53;5056309;28;20199;-77
2022/01/08 05:57:46;;;;;;;1.10;0.73;;;;;;;-145.69;100.00;72397.44;5056547;28;20202;-77
2022/01/08 06:00:13;;;;;;;1.20;0.70;;;;;;;-145.69;100.00;72431.28;5056419;28;20292;-77
2022/01/08 06:02:41;;;;;;;0.73;0.63;;;;;;;-145.69;100.00;72441.25;5056176;28;20218;-77
2022/01/08 06:05:09;;;;;;;0.60;0.60;;;;;;;-145.69;100.00;72461.13;5056263;28;20658;-77
2022/01/08 06:07:36;;;;;;;1.80;0.63;;;;;;;-145.69;100.00;72461.13;5056269;28;20203;-76
2022/01/08 06:10:02;;;;;;;0.70;0.70;;;;;;;-145.69;100.00;72477.06;5056137;28;20203;-77
2022/01/08 06:12:29;;;;;;;0.90;0.90;;;;;;;-145.69;100.00;72493.00;5056240;28;20199;-76
2022/01/08 06:14:55;;;;;;;3.13;1.30;;;;;;;-145.69;100.00;72506.91;5055831;28;20199;-76
2022/01/08 06:17:22;;;;;;;3.87;1.43;;;;;;;-145.69;100.00;72500.94;5055718;28;20200;-77
2022/01/08 06:19:50;;;;;;;1.10;1.00;;;;;;;-145.69;100.00;72520.84;5055942;28;20635;-76
2022/01/08 06:22:16;;;;;;;0.87;0.70;;;;;;;-145.69;100.00;72536.78;5055555;28;20195;-77
2022/01/08 06:24:43;;;;;;;1.37;0.93;;;;;;;-145.69;100.00;72544.75;5055788;28;20207;-76
2022/01/08 06:27:09;;;;;;;3.83;0.93;;;;;;;-145.69;100.00;72550.72;5055835;28;20350;-76
2022/01/08 06:29:36;;;;;;;0.83;0.83;;;;;;;-145.69;100.00;72552.69;5055861;28;20225;-77
2022/01/08 06:32:03;;;;;;;1.23;1.13;;;;;;;-145.69;100.00;72558.66;5055593;28;20237;-77
2022/01/08 06:34:29;;;;;;;1.43;1.23;;;;;;;-145.69;100.00;72572.59;5055683;28;20211;-77
2022/01/08 06:36:57;;;;;;;1.33;0.80;;;;;;;-145.69;100.00;72582.56;5055696;28;20203;-76
2022/01/08 06:39:23;;;;;;;1.20;1.10;;;;;;;-145.69;100.00;72590.53;5055567;28;20203;-76
2022/01/08 06:41:50;;;;;;;1.53;1.10;;;;;;;-145.69;100.00;72584.56;5055333;28;20242;-77
2022/01/08 06:44:16;;;;;;;1.83;1.20;;;;;;;-145.69;100.00;72592.50;5055298;28;20203;-77
2022/01/08 06:46:42;;;;;;;1.17;1.07;;;;;;;-145.69;100.00;72610.44;5054864;28;20195;-76
2022/01/08 06:49:09;;;;;;;2.20;1.20;;;;;;;-145.69;100.00;72614.41;5055018;28;20261;-77
2022/01/08 06:51:36;;;;;;;3.00;2.07;;;;;;;-145.69;100.00;72612.41;5054672;28;20220;-77
2022/01/08 06:54:04;;;;;;;2.93;1.50;;;;;;;-145.69;100.00;72622.38;5055124;28;20662;-77
2022/01/08 06:56:30;;;;;;;2.20;1.53;;;;;;;-145.69;100.00;72636.31;5055232;28;20207;-77
2022/01/08 06:58:57;;;;;;;1.63;1.30;;;;;;;-145.69;100.00;72636.31;5055032;28;20199;-76
2022/01/08 07:01:23;;;;;;;2.60;1.53;;;;;;;-145.69;100.00;72646.25;5055296;28;20231;-77
2022/01/08 07:03:50;;;;;;;1.50;1.00;;;;;;;-145.69;100.00;72648.25;5054673;28;20575;-77
2022/01/08 07:06:16;;;;;;;2.83;1.37;;;;;;;-145.69;100.00;72648.25;5055089;28;20210;-76
2022/01/08 07:08:43;;;;;;;1.47;1.20;;;;;;;-145.69;100.00;72656.22;5054786;28;20655;-77
2022/01/08 07:11:11;;;;;;;1.37;1.10;;;;;;;-145.69;100.00;72664.16;5055054;28;20211;-77
2022/01/08 07:13:38;;;;;;;1.10;1.00;;;;;;;-145.69;100.00;72664.16;5054877;28;20199;-77
2022/01/08 07:16:05;;;;;;;3.17;1.13;;;;;;;-145.69;100.00;72680.09;5054486;28;20202;-77
2022/01/08 07:18:31;;;;;;;1.23;0.83;;;;;;;-145.69;100.00;72682.09;5054582;28;20540;-77
2022/01/08 07:20:58;;;;;;;1.07;0.93;;;;;;;-145.69;100.00;72684.06;5054717;28;20235;-77
2022/01/08 07:23:25;;;;;;;2.40;1.50;;;;;;;-145.69;100.00;72692.03;5054599;28;20199;-77
2022/01/08 07:25:51;;;;;;;1.67;1.00;;;;;;;-145.69;100.00;72684.06;5053487;28;20953;-76
2022/01/08 07:28:19;;;;;;;1.27;1.17;;;;;;;-145.69;100.00;72698.00;5048217;28;20207;-76
2022/01/08 07:30:46;;;;;;;1.00;1.00;;;;;;;-145.69;100.00;72711.94;5034487;28;20204;-76
2022/01/08 07:33:12;;;;;;;1.43;1.20;;;;;;;-145.69;100.00;72717.91;5034802;28;20208;-76
2022/01/08 07:35:39;;;;;;;1.87;1.37;;;;;;;-145.69;100.00;72711.94;5034458;28;20204;-76
2022/01/08 07:38:05;;;;;;;3.33;1.77;;;;;;;-145.69;100.00;72723.88;5034420;28;20610;-77
2022/01/08 07:40:31;;;;;;;3.43;1.30;;;;;;;-145.69;100.00;72733.84;5034139;28;20196;-77
2022/01/08 07:42:58;;;;;;;1.43;1.33;;;;;;;-145.69;100.00;72735.81;5034361;28;20658;-76
2022/01/08 07:45:26;;;;;;;2.20;1.40;;;;;;;-145.69;100.00;72745.78;5039722;28;20199;-77
2022/01/08 07:47:52;;;;;;;4.03;1.80;;;;;;;-145.69;100.00;72767.69;5053990;28;20253;-75
2022/01/08 07:50:19;;;;;;;1.47;1.37;;;;;;;-145.69;100.00;72763.69;5054245;28;20202;-76
2022/01/08 07:52:45;;;;;;;2.00;1.73;;;;;;;-145.69;100.00;72775.63;5054065;28;20703;-76
2022/01/08 07:55:13;;;;;;;2.67;1.77;;;;;;;-145.69;100.00;72765.69;5053848;28;20211;-76
2022/01/08 07:57:40;;;;;;;4.03;1.60;;;;;;;-145.69;100.00;72771.66;5053982;28;20200;-76
2022/01/08 08:00:08;;;;;;;5.20;1.90;;;;;;;-145.69;100.00;72787.56;5053068;28;20670;-77
2022/01/08 08:02:36;;;;;;;3.10;1.50;;;;;;;-145.69;100.00;72789.56;5053673;28;20250;-76
2022/01/08 08:05:02;;;;;;;2.57;1.63;;;;;;;-145.69;100.00;72785.59;5053648;28;20203;-76
2022/01/08 08:07:31;;;;;;;5.63;1.60;;;;;;;-145.69;100.00;72787.56;5053814;28;20206;-76
2022/01/08 08:09:57;;;;;;;3.70;1.90;;;;;;;-145.69;100.00;72789.56;5053650;28;20203;-76
2022/01/08 08:12:24;;;;;;;5.73;1.90;;;;;;;-145.69;100.00;72779.63;5053704;28;20210;-76
2022/01/08 08:14:51;;;;;;;2.80;1.97;;;;;;;-145.69;100.00;72777.63;5053151;28;20214;-76
2022/01/08 08:17:17;;;;;;;3.60;2.20;;;;;;;-145.69;100.00;72791.56;5053644;28;20225;-76
2022/01/08 08:19:45;;;;;;;6.27;2.20;;;;;;;-145.69;100.00;72805.50;5053560;28;20210;-76
2022/01/08 08:22:11;;;;;;;4.00;2.47;;;;;;;-145.69;100.00;72815.44;5053267;28;20238;-76
2022/01/08 08:24:38;;;;;;;6.13;3.07;;;;;;;-145.69;100.00;72801.50;5053419;28;20200;-76
2022/01/08 08:27:04;;;;;;;5.77;2.87;;;;;;;-145.69;100.00;72823.41;5053437;28;20242;-77
2022/01/08 08:29:31;;;;;;;7.87;3.17;;;;;;;-145.69;100.00;72817.44;5053239;28;20203;-77
2022/01/08 08:31:57;;;;;;;5.30;3.00;;;;;;;-145.69;100.00;72795.53;5053418;28;20207;-77
2022/01/08 08:34:24;;;;;;;8.60;3.70;;;;;;;-145.69;100.00;72803.50;5053442;28;20203;-77
2022/01/08 08:36:51;;;;;;;9.03;4.40;;;;;;;-145.69;100.00;72777.63;5053228;28;20207;-76
2022/01/08 08:39:18;;;;;;;10.00;4.57;;;;;;;-145.69;100.00;72751.75;5053057;28;20196;-76
2022/01/08 08:41:44;;;;;;;6.13;3.23;;;;;;;-145.69;100.00;72775.63;5053112;28;20219;-76
2022/01/08 08:44:11;;;;;;;5.50;3.33;;;;;;;-145.69;100.00;72785.59;5053227;28;20613;-77
2022/01/08 08:46:37;;;;;;;8.47;3.03;;;;;;;-145.69;100.00;72803.50;5052891;28;20203;-76
2022/01/08 08:49:03;;;;;;;7.07;3.73;;;;;;;-145.69;100.00;72825.41;5053034;28;20206;-77
2022/01/08 08:51:30;;;;;;;9.27;3.53;;;;;;;-145.69;100.00;72841.31;5052820;28;20208;-76
2022/01/08 08:53:58;;;;;;;4.67;2.90;;;;;;;-145.69;100.00;72847.28;5052916;28;20210;-76
2022/01/08 08:56:24;;;;;;;6.90;3.43;;;;;;;-145.69;100.00;72839.34;5052799;28;20199;-76
2022/01/08 08:58:50;;;;;;;6.70;3.43;;;;;;;-145.69;100.00;72851.28;5053030;28;20571;-75
2022/01/08 09:01:17;;;;;;;7.70;3.27;;;;;;;-145.69;100.00;72843.31;5052854;28;20227;-76
2022/01/08 09:03:43;;;;;;;3.13;2.57;;;;;;;-145.69;100.00;72851.28;5052772;28;20253;-75
2022/01/08 09:06:10;;;;;;;4.50;2.60;;;;;;;-145.69;100.00;72851.28;5052784;28;20200;-76
2022/01/08 09:08:36;;;;;;;6.53;2.97;;;;;;;-145.69;100.00;72843.31;5052640;28;20658;-75
2022/01/08 09:11:04;;;;;;;7.57;2.80;;;;;;;-145.69;100.00;72843.31;5040906;28;20204;-75
2022/01/08 09:13:31;;;;;;;6.90;2.90;;;;;;;-145.69;100.00;72843.31;5036957;28;20223;-74
2022/01/08 09:15:57;;;;;;;6.17;2.33;;;;;;;-145.69;100.00;72835.34;5048661;28;20678;-75
2022/01/08 09:18:24;;;;;;;3.50;2.10;;;;;;;-145.69;100.00;72837.34;5056715;28;20210;-75
2022/01/08 09:20:50;;;;;;;12.27;3.67;;;;;;;-145.69;100.00;72829.38;5053587;28;20446;-75
2022/01/08 09:23:17;;;;;;;3.87;2.20;;;;;;;-145.69;100.00;72829.38;5039962;28;20253;-76
2022/01/08 09:25:43;;;;;;;5.47;2.47;;;;;;;-145.69;100.00;72839.34;5056357;28;20670;-75
2022/01/08 09:28:11;;;;;;;6.03;2.30;;;;;;;-145.69;100.00;72843.31;5056666;28;20256;-75
2022/01/08 09:30:38;;;;;;;2.40;1.63;;;;;;;-145.69;100.00;72869.19;5056560;28;20206;-75
2022/01/08 09:33:04;;;;;;;7.00;1.93;;;;;;;-145.69;100.00;72855.25;5056438;28;20203;-75
2022/01/08 09:35:31;;;;;;;8.70;2.60;;;;;;;-145.69;100.00;72853.28;5056308;28;20570;-75
2022/01/08 09:37:57;;;;;;;7.57;2.80;;;;;;;-145.69;100.00;72837.34;5056247;28;20203;-75
2022/01/08 09:40:24;;;;;;;2.90;1.70;;;;;;;-145.69;100.00;72851.28;5056088;28;20680;-75
2022/01/08 09:42:51;;;;;;;2.73;1.90;;;;;;;-145.69;100.00;72869.19;5056359;28;20292;-75
2022/01/08 09:45:20;;;;;;;5.03;1.90;;;;;;;-145.69;100.00;72867.19;5056190;28;20191;-75
2022/01/08 09:47:46;;;;;;;6.97;2.10;;;;;;;-145.69;100.00;72849.28;5056373;28;20215;-75
2022/01/08 09:50:13;;;;;;;9.57;3.47;;;;;;;-145.69;100.00;72823.41;5056069;28;20202;-75
2022/01/08 09:52:40;;;;;;;6.77;1.80;;;;;;;-145.69;100.00;72811.47;5055722;28;20257;-75
2022/01/08 09:55:07;;;;;;;7.00;3.47;;;;;;;-145.69;100.00;72827.38;5056231;28;20195;-75
2022/01/08 09:57:34;;;;;;;4.60;2.20;;;;;;;-145.69;100.00;72833.38;5056121;28;20569;-75
2022/01/08 10:00:00;;;;;;;6.83;2.37;;;;;;;-145.69;100.00;72837.34;5055748;28;20203;-74
2022/01/08 10:02:28;;;;;;;13.13;4.23;;;;;;;-145.69;100.00;72845.31;5055656;28;20238;-75
2022/01/08 10:05:08;;;;;;;12.70;4.63;;;;;;;-145.69;100.00;72835.34;5038053;28;20204;-75
2022/01/08 10:07:35;;;;;;;5.73;2.43;;;;;;;-145.69;100.00;72833.38;5036155;28;20200;-77
2022/01/08 10:10:07;;;;;;;3.87;2.30;;;;;;;-145.69;100.00;72819.44;5035940;28;20206;-75
2022/01/08 10:12:57;;;;;;;7.17;1.80;;;;;;;-145.69;100.00;72815.44;5035912;28;20200;-75
2022/01/08 10:18:15;;;;;;;4.37;2.07;;;;;;;-145.69;100.00;72803.50;5055712;28;20210;-76
2022/01/08 10:20:43;;;;;;;4.03;1.97;;;;;;;-145.69;100.00;72797.53;5055634;28;20206;-75
2022/01/08 10:23:16;;;;;;;4.60;1.80;;;;;;;-145.69;100.00;72809.47;5054508;28;20254;-75
2022/01/08 10:25:54;;;;;;;5.17;2.60;;;;;;;-145.69;100.00;72791.56;5055580;28;20214;-75
2022/01/08 10:28:33;;;;;;;3.07;1.93;;;;;;;-145.69;100.00;72779.63;5055652;28;20227;-75
2022/01/08 10:31:08;;;;;;;4.20;2.30;;;;;;;-145.69;97.72;72767.69;5055561;28;20203;-75
2022/01/08 10:33:35;;;;;;;5.70;1.90;;;;;;;-145.69;98.05;72755.72;5055231;28;20272;-75
2022/01/08 10:36:02;;;;;;;4.73;2.00;;;;;;;-145.69;98.13;72723.88;5055257;28;20207;-75
2022/01/08 10:38:30;;;;;;;6.37;2.17;;;;;;;-145.69;94.64;72676.09;5055086;28;20260;-76
2022/01/08 10:40:57;;;;;;;3.57;1.97;;;;;;;-145.69;92.56;72694.03;5055316;28;20235;-75
2022/01/08 10:43:26;;;;;;;4.53;2.00;;;;;;;-145.69;95.50;72725.88;5055055;28;20234;-74
2022/01/08 10:45:57;;;;;;;4.17;1.83;;;;;;;-145.69;96.73;72715.91;5054959;28;20226;-74
2022/01/08 10:48:29;;;;;;;4.97;1.60;;;;;;;-145.69;94.37;72694.03;5055046;28;20570;-74
2022/01/08 10:51:11;;;;;;;2.43;1.50;;;;;;;-145.69;95.96;72707.97;5054975;28;20296;-74
2022/01/08 10:54:12;;;;;;;7.13;1.53;;;;;;;-145.69;94.43;72698.00;5054662;28;20204;-74
2022/01/08 10:56:44;;;;;;;4.13;1.63;;;;;;;-145.69;93.99;72682.09;5053599;28;20218;-75
2022/01/08 10:59:14;;;;;;;3.10;1.53;;;;;;;-145.69;91.65;72658.19;5054784;28;20203;-76
2022/01/08 11:01:50;;;;;;;4.50;1.80;;;;;;;-145.69;92.83;72684.06;5054985;28;20261;-76
2022/01/08 11:04:31;;;;;;;5.77;1.80;;;;;;;-145.69;92.14;72656.22;5054687;28;20199;-75
2022/01/08 11:07:01;;;;;;;4.87;2.40;;;;;;;-145.69;90.99;72636.31;5054822;28;20196;-75
2022/01/08 11:09:29;;;;;;;3.17;1.70;;;;;;;-145.69;90.89;72666.16;5054600;28;20210;-75
2022/01/08 11:12:00;;;;;;;3.90;1.80;;;;;;;-145.69;89.79;72666.16;5054118;28;20210;-76
2022/01/08 11:15:12;;;;;;;2.77;1.53;;;;;;;-145.69;91.30;72650.22;5052564;28;20202;-75
2022/01/08 11:17:43;;;;;;;3.13;1.80;;;;;;;-145.69;91.09;72624.34;5050813;28;20290;-76
2022/01/08 11:20:12;;;;;;;6.53;1.30;;;;;;;-145.69;87.55;72622.38;5054357;28;20213;-75
2022/01/08 11:22:42;;;;;;;2.10;1.30;;;;;;;-145.69;85.46;72592.50;5054480;28;20223;-74
2022/01/08 11:25:10;;;;;;;1.93;1.10;;;;;;;-145.69;85.33;72604.44;5054405;28;20203;-74
2022/01/08 11:27:46;;;;;;;2.13;0.90;;;;;;;-145.69;84.14;72602.47;5061937;28;20211;-74
2022/01/08 11:30:19;;;;;;;9.10;1.60;;;;;;;-145.69;84.79;72574.59;5074295;28;20248;-75